createdAt,value
2018-11-02T00:00:58.036Z,18.00
2018-11-02T00:01:58.050Z,16.30
2018-11-02T00:02:58.007Z,15.70
2018-11-02T00:03:58.009Z,15.80
2018-11-02T00:04:58.001Z,16.40
2018-11-02T00:05:58.042Z,16.70
2018-11-02T00:06:57.997Z,16.70
2018-11-02T00:07:57.996Z,16.00
2018-11-02T00:08:57.996Z,16.60
2018-11-02T00:09:58.008Z,16.10
2018-11-02T00:10:58.020Z,16.60
2018-11-02T00:11:58.004Z,16.80
2018-11-02T00:12:58.018Z,17.30
2018-11-02T00:13:58.006Z,16.90
2018-11-02T00:14:58.009Z,16.30
2018-11-02T00:15:57.993Z,16.20
2018-11-02T00:16:57.992Z,17.10
2018-11-02T00:17:58.006Z,17.20
2018-11-02T00:18:58.057Z,15.80
2018-11-02T00:19:57.994Z,16.90
2018-11-02T00:20:58.011Z,16.70
2018-11-02T00:21:58.004Z,16.60
2018-11-02T00:22:58.022Z,15.80
2018-11-02T00:23:58.021Z,16.00
2018-11-02T00:24:58.008Z,16.10
2018-11-02T00:25:58.023Z,15.80
2018-11-02T00:26:57.999Z,16.70
2018-11-02T00:27:57.999Z,16.80
2018-11-02T00:28:58.003Z,16.20
2018-11-02T00:29:58.015Z,16.30
2018-11-02T00:30:58.026Z,16.90
2018-11-02T00:31:58.213Z,15.90
2018-11-02T00:32:58.005Z,15.70
2018-11-02T00:33:58.034Z,15.50
2018-11-02T00:34:58.011Z,16.40
2018-11-02T00:35:58.018Z,16.30
2018-11-02T00:36:58.008Z,17.00
2018-11-02T00:37:58.030Z,16.10
2018-11-02T00:38:58.014Z,16.30
2018-11-02T00:39:58.023Z,17.50
2018-11-02T00:40:58.017Z,17.50
2018-11-02T00:41:58.004Z,16.70
2018-11-02T00:42:58.012Z,16.70
2018-11-02T00:43:58.078Z,16.60
2018-11-02T00:44:58.011Z,16.20
2018-11-02T00:45:58.014Z,16.50
2018-11-02T00:46:58.016Z,15.40
2018-11-02T00:47:58.003Z,16.40
2018-11-02T00:48:58.002Z,16.00
2018-11-02T00:49:58.007Z,15.50
2018-11-02T00:50:58.039Z,15.20
2018-11-02T00:51:58.022Z,15.30
2018-11-02T00:52:58.023Z,15.40
2018-11-02T00:53:58.017Z,15.70
2018-11-02T00:54:58.022Z,14.90
2018-11-02T00:55:58.040Z,15.30
2018-11-02T00:56:58.019Z,15.10
2018-11-02T00:57:58.026Z,14.90
2018-11-02T00:58:58.022Z,15.70
2018-11-02T00:59:58.040Z,14.80
2018-11-02T01:00:58.029Z,14.10
2018-11-02T01:01:58.035Z,14.60
2018-11-02T01:02:58.026Z,13.80
2018-11-02T01:03:58.037Z,13.70
2018-11-02T01:04:58.028Z,14.30
2018-11-02T01:05:58.040Z,14.70
2018-11-02T01:06:58.058Z,13.90
2018-11-02T01:07:58.026Z,14.60
2018-11-02T01:08:58.057Z,13.60
2018-11-02T01:09:58.020Z,14.50
2018-11-02T01:10:58.019Z,13.90
2018-11-02T01:11:58.025Z,14.20
2018-11-02T01:12:58.018Z,13.70
2018-11-02T01:13:58.026Z,14.80
2018-11-02T01:14:58.027Z,13.60
2018-11-02T01:15:58.028Z,13.50
2018-11-02T01:16:58.026Z,14.60
2018-11-02T01:17:58.028Z,13.20
2018-11-02T01:18:58.044Z,14.30
2018-11-02T01:19:58.035Z,14.10
2018-11-02T01:20:58.046Z,14.00
2018-11-02T01:21:58.043Z,13.70
2018-11-02T01:22:58.049Z,13.40
2018-11-02T01:23:58.029Z,13.50
2018-11-02T01:24:58.039Z,13.90
2018-11-02T01:25:58.028Z,13.00
2018-11-02T01:26:58.042Z,13.50
2018-11-02T01:27:58.052Z,12.80
2018-11-02T01:28:58.037Z,13.40
2018-11-02T01:29:58.027Z,13.20
2018-11-02T01:30:58.054Z,13.60
2018-11-02T01:31:58.051Z,14.60
2018-11-02T01:32:58.028Z,13.80
2018-11-02T01:33:58.035Z,13.10
2018-11-02T01:34:58.038Z,13.40
2018-11-02T01:35:58.050Z,13.40
2018-11-02T01:36:58.054Z,13.30
2018-11-02T01:37:58.072Z,13.10
2018-11-02T01:38:58.062Z,13.90
2018-11-02T01:39:58.044Z,12.70
2018-11-02T01:40:58.026Z,13.00
2018-11-02T01:41:58.048Z,13.80
2018-11-02T01:42:58.049Z,13.80
2018-11-02T01:43:58.033Z,13.90
2018-11-02T01:44:58.044Z,13.30
2018-11-02T01:45:58.046Z,13.40
2018-11-02T01:46:58.034Z,13.70
2018-11-02T01:47:58.068Z,13.00
2018-11-02T01:48:58.028Z,14.10
2018-11-02T01:49:58.028Z,13.50
2018-11-02T01:50:58.060Z,13.80
2018-11-02T01:51:58.050Z,13.60
2018-11-02T01:52:58.052Z,14.10
2018-11-02T01:53:58.047Z,13.40
2018-11-02T01:54:58.031Z,13.70
2018-11-02T01:55:58.049Z,13.40
2018-11-02T01:56:58.032Z,12.70
2018-11-02T01:57:58.037Z,12.60
2018-11-02T01:58:58.088Z,12.90
2018-11-02T01:59:58.042Z,13.30
2018-11-02T02:00:58.039Z,13.00
2018-11-02T02:01:58.049Z,13.60
2018-11-02T02:02:58.044Z,11.90
2018-11-02T02:03:58.048Z,12.40
2018-11-02T02:04:58.060Z,11.90
2018-11-02T02:05:58.050Z,12.20
2018-11-02T02:06:58.049Z,11.80
2018-11-02T02:07:58.051Z,12.40
2018-11-02T02:08:58.057Z,12.70
2018-11-02T02:09:58.062Z,12.80
2018-11-02T02:10:58.057Z,12.90
2018-11-02T02:11:58.037Z,12.10
2018-11-02T02:12:58.050Z,11.80
2018-11-02T02:13:58.040Z,12.70
2018-11-02T02:14:58.044Z,12.30
2018-11-02T02:15:58.043Z,11.50
2018-11-02T02:16:58.044Z,11.40
2018-11-02T02:17:58.042Z,10.90
2018-11-02T02:18:58.044Z,11.00
2018-11-02T02:19:58.046Z,11.10
2018-11-02T02:20:58.045Z,10.90
2018-11-02T02:21:58.063Z,10.80
2018-11-02T02:22:58.065Z,10.30
2018-11-02T02:23:58.064Z,10.70
2018-11-02T02:24:58.058Z,10.40
2018-11-02T02:25:58.061Z,9.40
2018-11-02T02:26:58.049Z,10.00
2018-11-02T02:27:58.064Z,9.80
2018-11-02T02:28:58.064Z,9.70
2018-11-02T02:29:58.042Z,9.40
2018-11-02T02:30:58.060Z,8.70
2018-11-02T02:31:58.053Z,8.40
2018-11-02T02:32:58.050Z,8.70
2018-11-02T02:33:58.076Z,9.20
2018-11-02T02:34:58.052Z,7.60
2018-11-02T02:35:58.053Z,8.40
2018-11-02T02:36:58.060Z,8.30
2018-11-02T02:37:58.069Z,8.00
2018-11-02T02:38:58.064Z,7.90
2018-11-02T02:39:58.076Z,7.80
2018-11-02T02:40:58.082Z,8.50
2018-11-02T02:41:58.064Z,7.70
2018-11-02T02:42:58.052Z,7.50
2018-11-02T02:43:58.075Z,7.10
2018-11-02T02:44:58.070Z,7.90
2018-11-02T02:45:58.051Z,7.50
2018-11-02T02:46:58.054Z,7.10
2018-11-02T02:47:58.066Z,7.00
2018-11-02T02:48:58.054Z,7.00
2018-11-02T02:49:58.054Z,7.20
2018-11-02T02:50:58.050Z,7.50
2018-11-02T02:51:58.093Z,7.00
2018-11-02T02:52:58.073Z,6.90
2018-11-02T02:53:58.076Z,7.40
2018-11-02T02:54:58.053Z,7.20
2018-11-02T02:55:58.084Z,7.20
2018-11-02T02:56:58.062Z,7.10
2018-11-02T02:57:58.063Z,6.90
2018-11-02T02:58:58.071Z,7.40
2018-11-02T02:59:58.071Z,7.40
2018-11-02T03:00:58.063Z,7.40
2018-11-02T03:01:58.077Z,7.10
2018-11-02T03:02:58.099Z,6.80
2018-11-02T03:03:58.073Z,7.50
2018-11-02T03:04:58.066Z,7.60
2018-11-02T03:05:58.076Z,7.90
2018-11-02T03:06:58.063Z,7.30
2018-11-02T03:07:58.080Z,8.10
2018-11-02T03:08:58.099Z,7.80
2018-11-02T03:09:58.089Z,8.00
2018-11-02T03:10:58.250Z,7.80
2018-11-02T03:11:58.065Z,7.90
2018-11-02T03:12:58.069Z,8.00
2018-11-02T03:13:58.114Z,7.60
2018-11-02T03:14:58.074Z,8.60
2018-11-02T03:15:58.072Z,8.10
2018-11-02T03:16:58.075Z,7.90
2018-11-02T03:17:58.075Z,8.10
2018-11-02T03:18:58.070Z,8.00
2018-11-02T03:19:58.062Z,7.50
2018-11-02T03:20:58.064Z,8.40
2018-11-02T03:21:58.085Z,8.10
2018-11-02T03:22:58.092Z,8.60
2018-11-02T03:23:58.087Z,8.20
2018-11-02T03:24:58.086Z,8.60
2018-11-02T03:25:58.084Z,7.50
2018-11-02T03:26:58.083Z,8.60
2018-11-02T03:27:58.102Z,8.70
2018-11-02T03:28:58.096Z,7.90
2018-11-02T03:29:58.086Z,9.00
2018-11-02T03:30:58.082Z,9.10
2018-11-02T03:31:58.072Z,8.70
2018-11-02T03:32:58.081Z,9.40
2018-11-02T03:33:58.088Z,8.60
2018-11-02T03:34:58.073Z,9.40
2018-11-02T03:35:58.093Z,9.00
2018-11-02T03:36:58.071Z,10.00
2018-11-02T03:37:58.086Z,9.00
2018-11-02T03:38:58.082Z,9.50
2018-11-02T03:39:58.094Z,10.30
2018-11-02T03:40:58.082Z,10.60
2018-11-02T03:41:58.104Z,10.20
2018-11-02T03:42:58.084Z,10.80
2018-11-02T03:43:58.088Z,10.60
2018-11-02T03:44:58.078Z,10.60
2018-11-02T03:45:58.077Z,10.60
2018-11-02T03:46:58.077Z,11.30
2018-11-02T03:47:58.084Z,10.50
2018-11-02T03:48:58.077Z,11.40
2018-11-02T03:49:58.166Z,11.40
2018-11-02T03:50:58.083Z,11.70
2018-11-02T03:51:58.073Z,11.00
2018-11-02T03:52:58.107Z,11.70
2018-11-02T03:53:58.229Z,11.90
2018-11-02T03:54:58.114Z,11.40
2018-11-02T03:55:58.641Z,11.10
2018-11-02T03:56:58.235Z,11.00
2018-11-02T03:57:58.085Z,11.80
2018-11-02T03:58:58.082Z,12.00
2018-11-02T03:59:58.376Z,11.90
2018-11-02T04:00:58.086Z,12.30
2018-11-02T04:01:58.085Z,12.30
2018-11-02T04:02:58.123Z,11.20
2018-11-02T04:03:58.088Z,12.40
2018-11-02T04:04:58.086Z,11.60
2018-11-02T04:05:58.085Z,11.70
2018-11-02T04:06:58.101Z,11.20
2018-11-02T04:07:58.098Z,11.70
2018-11-02T04:08:58.109Z,12.50
2018-11-02T04:09:58.084Z,13.60
2018-11-02T04:10:58.089Z,12.40
2018-11-02T04:11:58.097Z,11.60
2018-11-02T04:12:58.109Z,12.70
2018-11-02T04:13:58.089Z,12.30
2018-11-02T04:14:58.098Z,11.20
2018-11-02T04:15:58.089Z,11.90
2018-11-02T04:16:58.089Z,11.70
2018-11-02T04:17:58.086Z,11.80
2018-11-02T04:18:58.097Z,11.10
2018-11-02T04:19:58.098Z,11.80
2018-11-02T04:20:58.103Z,11.60
2018-11-02T04:21:58.108Z,11.90
2018-11-02T04:22:58.107Z,11.50
2018-11-02T04:23:58.098Z,11.80
2018-11-02T04:24:58.128Z,11.90
2018-11-02T04:25:58.090Z,11.60
2018-11-02T04:26:58.095Z,11.70
2018-11-02T04:27:58.101Z,11.90
2018-11-02T04:28:58.091Z,11.40
2018-11-02T04:29:58.097Z,11.40
2018-11-02T04:30:58.136Z,11.60
2018-11-02T04:31:58.110Z,11.40
2018-11-02T04:32:58.103Z,11.70
2018-11-02T04:33:58.117Z,11.50
2018-11-02T04:34:58.113Z,11.80
2018-11-02T04:35:58.112Z,12.60
2018-11-02T04:36:58.119Z,11.10
2018-11-02T04:37:58.112Z,11.30
2018-11-02T04:38:58.119Z,12.30
2018-11-02T04:39:58.112Z,11.90
2018-11-02T04:40:58.115Z,12.20
2018-11-02T04:41:58.115Z,12.20
2018-11-02T04:42:58.101Z,12.80
2018-11-02T04:43:58.110Z,13.00
2018-11-02T04:44:58.112Z,14.10
2018-11-02T04:45:58.108Z,14.80
2018-11-02T04:46:58.103Z,14.40
2018-11-02T04:47:58.102Z,14.50
2018-11-02T04:48:58.108Z,15.40
2018-11-02T04:49:58.102Z,16.10
2018-11-02T04:50:58.126Z,16.00
2018-11-02T04:51:58.108Z,16.00
2018-11-02T04:52:58.098Z,17.10
2018-11-02T04:53:58.105Z,16.80
2018-11-02T04:54:58.141Z,17.30
2018-11-02T04:55:58.113Z,18.00
2018-11-02T04:56:58.136Z,18.10
2018-11-02T04:57:58.121Z,18.50
2018-11-02T04:58:58.112Z,18.40
2018-11-02T04:59:58.112Z,19.00
2018-11-02T05:00:58.112Z,18.90
2018-11-02T05:01:58.111Z,19.20
2018-11-02T05:02:58.122Z,18.80
2018-11-02T05:03:58.114Z,19.70
2018-11-02T05:04:58.109Z,20.80
2018-11-02T05:05:58.128Z,20.30
2018-11-02T05:06:58.121Z,20.10
2018-11-02T05:07:58.121Z,19.30
2018-11-02T05:08:58.120Z,19.00
2018-11-02T05:09:58.215Z,20.30
2018-11-02T05:10:58.150Z,21.70
2018-11-02T05:11:58.115Z,21.80
2018-11-02T05:12:58.118Z,22.10
2018-11-02T05:13:58.130Z,22.60
2018-11-02T05:14:58.128Z,22.60
2018-11-02T05:15:58.117Z,24.00
2018-11-02T05:16:58.131Z,23.30
2018-11-02T05:17:58.140Z,23.00
2018-11-02T05:18:58.121Z,24.50
2018-11-02T05:19:58.136Z,25.00
2018-11-02T05:20:58.166Z,25.10
2018-11-02T05:21:58.118Z,25.60
2018-11-02T05:22:58.113Z,25.40
2018-11-02T05:23:58.125Z,27.90
2018-11-02T05:24:58.117Z,26.20
2018-11-02T05:25:58.117Z,26.80
2018-11-02T05:26:58.122Z,27.00
2018-11-02T05:27:58.122Z,27.10
2018-11-02T05:28:58.144Z,27.10
2018-11-02T05:29:58.145Z,27.60
2018-11-02T05:30:58.129Z,27.80
2018-11-02T05:31:58.127Z,29.10
2018-11-02T05:32:58.123Z,28.80
2018-11-02T05:33:58.122Z,28.70
2018-11-02T05:34:58.124Z,29.10
2018-11-02T05:35:58.146Z,30.10
2018-11-02T05:36:58.132Z,29.20
2018-11-02T05:37:58.137Z,30.40
2018-11-02T05:38:58.130Z,30.30
2018-11-02T05:39:58.148Z,31.30
2018-11-02T05:40:58.123Z,31.50
2018-11-02T05:41:58.131Z,31.40
2018-11-02T05:42:58.141Z,31.20
2018-11-02T05:43:58.156Z,32.00
2018-11-02T05:44:58.130Z,33.00
2018-11-02T05:45:58.138Z,32.00
2018-11-02T05:46:58.137Z,33.00
2018-11-02T05:47:58.151Z,34.40
2018-11-02T05:48:58.141Z,34.70
2018-11-02T05:49:58.155Z,34.50
2018-11-02T05:50:58.153Z,34.70
2018-11-02T05:51:58.173Z,35.20
2018-11-02T05:52:58.124Z,39.80
2018-11-02T05:53:58.170Z,43.30
2018-11-02T05:54:58.138Z,47.20
2018-11-02T05:55:58.130Z,47.30
2018-11-02T05:56:58.144Z,47.30
2018-11-02T05:57:58.129Z,53.70
2018-11-02T05:58:58.176Z,55.60
2018-11-02T05:59:58.138Z,55.00
2018-11-02T06:00:58.149Z,54.40
2018-11-02T06:01:58.147Z,52.80
2018-11-02T06:02:58.179Z,49.90
2018-11-02T06:03:58.153Z,50.50
2018-11-02T06:04:58.141Z,48.70
2018-11-02T06:05:58.147Z,44.80
2018-11-02T06:06:58.168Z,42.50
2018-11-02T06:07:58.199Z,44.00
2018-11-02T06:08:58.136Z,43.00
2018-11-02T06:09:58.133Z,45.30
2018-11-02T06:10:58.141Z,44.50
2018-11-02T06:11:58.142Z,44.10
2018-11-02T06:12:58.136Z,45.90
2018-11-02T06:13:58.159Z,46.00
2018-11-02T06:14:58.140Z,45.30
2018-11-02T06:15:58.169Z,43.90
2018-11-02T06:16:58.211Z,43.60
2018-11-02T06:17:58.160Z,44.10
2018-11-02T06:18:58.152Z,43.00
2018-11-02T06:19:58.158Z,43.10
2018-11-02T06:20:58.150Z,42.10
2018-11-02T06:21:58.136Z,41.80
2018-11-02T06:22:58.155Z,41.80
2018-11-02T06:23:58.144Z,42.10
2018-11-02T06:24:58.170Z,43.20
2018-11-02T06:25:58.137Z,41.00
2018-11-02T06:26:58.149Z,42.00
2018-11-02T06:27:58.149Z,41.70
2018-11-02T06:28:58.158Z,40.30
2018-11-02T06:29:58.155Z,38.90
2018-11-02T06:30:58.151Z,40.90
2018-11-02T06:31:58.164Z,41.60
2018-11-02T06:32:58.149Z,40.70
2018-11-02T06:33:58.156Z,41.80
2018-11-02T06:34:58.173Z,42.10
2018-11-02T06:35:58.160Z,43.20
2018-11-02T06:36:58.148Z,42.30
2018-11-02T06:37:58.163Z,44.30
2018-11-02T06:38:58.300Z,41.10
2018-11-02T06:39:58.143Z,42.00
2018-11-02T06:40:58.146Z,41.70
2018-11-02T06:41:58.146Z,41.90
2018-11-02T06:42:58.148Z,44.10
2018-11-02T06:43:58.162Z,43.30
2018-11-02T06:44:58.318Z,40.80
2018-11-02T06:45:58.150Z,42.40
2018-11-02T06:46:58.149Z,42.20
2018-11-02T06:47:58.160Z,42.30
2018-11-02T06:48:58.162Z,41.10
2018-11-02T06:49:58.165Z,41.40
2018-11-02T06:50:58.231Z,41.20
2018-11-02T06:51:58.162Z,40.70
2018-11-02T06:52:58.173Z,41.80
2018-11-02T06:53:58.143Z,41.10
2018-11-02T06:54:58.142Z,41.50
2018-11-02T06:55:58.172Z,37.40
2018-11-02T06:56:58.149Z,37.10
2018-11-02T06:57:58.179Z,36.40
2018-11-02T06:58:58.214Z,37.30
2018-11-02T06:59:58.416Z,34.60
2018-11-02T07:00:58.155Z,33.50
2018-11-02T07:01:58.151Z,33.70
2018-11-02T07:02:58.170Z,32.30
2018-11-02T07:03:58.160Z,30.90
2018-11-02T07:04:58.157Z,30.80
2018-11-02T07:05:58.160Z,31.70
2018-11-02T07:06:58.179Z,32.00
2018-11-02T07:07:58.320Z,30.40
2018-11-02T07:08:58.182Z,31.60
2018-11-02T07:09:58.157Z,32.30
2018-11-02T07:10:58.175Z,30.90
2018-11-02T07:11:58.158Z,32.60
2018-11-02T07:12:58.187Z,33.20
2018-11-02T07:13:58.182Z,32.50
2018-11-02T07:14:58.153Z,32.20
2018-11-02T07:15:58.151Z,34.30
2018-11-02T07:16:58.171Z,35.70
2018-11-02T07:17:58.166Z,35.80
2018-11-02T07:18:58.164Z,38.10
2018-11-02T07:19:58.188Z,36.10
2018-11-02T07:20:58.157Z,34.90
2018-11-02T07:21:58.171Z,38.00
2018-11-02T07:22:58.155Z,38.70
2018-11-02T07:23:58.203Z,37.30
2018-11-02T07:24:58.221Z,35.30
2018-11-02T07:25:58.183Z,35.30
2018-11-02T07:26:58.164Z,37.00
2018-11-02T07:27:58.163Z,37.50
2018-11-02T07:29:00.677Z,37.80
2018-11-02T07:29:58.161Z,38.00
2018-11-02T07:30:58.161Z,41.00
2018-11-02T07:31:58.163Z,42.10
2018-11-02T07:32:58.180Z,41.00
2018-11-02T07:33:58.183Z,43.20
2018-11-02T07:34:58.186Z,43.50
2018-11-02T07:35:58.175Z,44.30
2018-11-02T07:36:58.158Z,44.90
2018-11-02T07:37:58.176Z,44.40
2018-11-02T07:38:58.184Z,45.40
2018-11-02T07:39:58.167Z,44.00
2018-11-02T07:40:58.195Z,42.40
2018-11-02T07:41:58.180Z,40.70
2018-11-02T07:42:58.201Z,40.60
2018-11-02T07:43:58.181Z,41.30
2018-11-02T07:44:58.177Z,40.10
2018-11-02T07:45:58.193Z,43.10
2018-11-02T07:46:58.171Z,39.30
2018-11-02T07:47:58.201Z,39.00
2018-11-02T07:48:58.167Z,39.60
2018-11-02T07:49:58.194Z,38.20
2018-11-02T07:50:58.175Z,39.20
2018-11-02T07:51:58.183Z,39.30
2018-11-02T07:52:58.187Z,39.00
2018-11-02T07:53:58.193Z,40.40
2018-11-02T07:54:58.173Z,40.80
2018-11-02T07:55:58.164Z,40.20
2018-11-02T07:56:58.178Z,39.50
2018-11-02T07:57:58.173Z,40.30
2018-11-02T07:58:58.180Z,40.00
2018-11-02T07:59:58.182Z,39.70
2018-11-02T08:00:58.169Z,39.70
2018-11-02T08:01:58.322Z,38.80
2018-11-02T08:02:58.180Z,40.20
2018-11-02T08:03:58.200Z,39.30
2018-11-02T08:04:58.180Z,39.50
2018-11-02T08:05:58.247Z,40.60
2018-11-02T08:06:58.223Z,36.40
2018-11-02T08:07:58.182Z,36.60
2018-11-02T08:08:58.184Z,37.90
2018-11-02T08:09:58.175Z,36.30
2018-11-02T08:10:58.186Z,37.80
2018-11-02T08:11:58.192Z,37.70
2018-11-02T08:12:58.194Z,38.00
2018-11-02T08:13:58.193Z,37.80
2018-11-02T08:14:58.198Z,38.10
2018-11-02T08:15:58.249Z,38.40
2018-11-02T08:16:58.209Z,39.40
2018-11-02T08:17:58.180Z,37.70
2018-11-02T08:18:58.259Z,40.40
2018-11-02T08:19:58.179Z,37.90
2018-11-02T08:20:58.199Z,38.70
2018-11-02T08:21:58.180Z,40.90
2018-11-02T08:22:58.184Z,39.00
2018-11-02T08:23:58.342Z,37.10
2018-11-02T08:24:58.189Z,37.70
2018-11-02T08:25:58.196Z,37.10
2018-11-02T08:26:58.183Z,36.90
2018-11-02T08:27:58.221Z,36.80
2018-11-02T08:28:58.188Z,36.40
2018-11-02T08:29:58.200Z,35.00
2018-11-02T08:30:58.203Z,34.10
2018-11-02T08:31:58.255Z,33.50
2018-11-02T08:32:58.210Z,34.50
2018-11-02T08:33:58.267Z,33.20
2018-11-02T08:34:58.210Z,32.90
2018-11-02T08:35:58.197Z,32.90
2018-11-02T08:36:58.238Z,33.00
2018-11-02T08:37:58.204Z,32.70
2018-11-02T08:38:58.204Z,33.30
2018-11-02T08:39:58.206Z,32.40
2018-11-02T08:41:00.216Z,31.50
2018-11-02T08:41:58.221Z,30.40
2018-11-02T08:42:58.200Z,28.30
2018-11-02T08:43:58.230Z,28.80
2018-11-02T08:44:58.228Z,28.50
2018-11-02T08:45:58.211Z,29.10
2018-11-02T08:46:58.210Z,29.50
2018-11-02T08:47:58.220Z,28.70
2018-11-02T08:48:58.233Z,27.10
2018-11-02T08:49:58.210Z,25.70
2018-11-02T08:50:58.213Z,27.20
2018-11-02T08:51:58.236Z,27.30
2018-11-02T08:52:58.220Z,26.00
2018-11-02T08:53:58.232Z,24.40
2018-11-02T08:54:58.217Z,24.40
2018-11-02T08:55:58.201Z,24.20
2018-11-02T08:56:58.199Z,23.90
2018-11-02T08:57:58.364Z,22.60
2018-11-02T08:58:58.299Z,23.50
2018-11-02T08:59:58.247Z,23.30
2018-11-02T09:00:58.210Z,23.10
2018-11-02T09:01:58.240Z,21.00
2018-11-02T09:02:58.230Z,22.30
2018-11-02T09:03:58.210Z,21.80
2018-11-02T09:04:58.251Z,21.50
2018-11-02T09:05:58.252Z,20.90
2018-11-02T09:06:58.230Z,20.00
2018-11-02T09:07:58.263Z,21.40
2018-11-02T09:08:58.227Z,20.40
2018-11-02T09:09:58.228Z,19.90
2018-11-02T09:10:58.269Z,19.10
2018-11-02T09:11:58.286Z,24.60
2018-11-02T09:12:58.269Z,23.80
2018-11-02T09:13:58.241Z,22.00
2018-11-02T09:14:58.224Z,20.10
2018-11-02T09:15:58.228Z,18.40
2018-11-02T09:16:58.233Z,17.20
2018-11-02T09:17:58.223Z,17.40
2018-11-02T09:18:58.270Z,17.10
2018-11-02T09:19:58.262Z,18.90
2018-11-02T09:20:58.255Z,17.90
2018-11-02T09:21:58.270Z,18.40
2018-11-02T09:22:58.233Z,19.10
2018-11-02T09:23:58.260Z,18.00
2018-11-02T09:24:58.231Z,19.00
2018-11-02T09:25:58.243Z,16.80
2018-11-02T09:26:58.258Z,18.60
2018-11-02T09:27:58.292Z,15.90
2018-11-02T09:28:58.239Z,15.80
2018-11-02T09:29:58.245Z,14.80
2018-11-02T09:30:58.429Z,15.00
2018-11-02T09:31:58.431Z,15.30
2018-11-02T09:32:58.342Z,15.30
2018-11-02T09:33:58.256Z,16.30
2018-11-02T09:34:58.324Z,16.00
2018-11-02T09:35:59.246Z,16.10
2018-11-02T09:36:58.332Z,15.70
2018-11-02T09:37:58.355Z,12.20
2018-11-02T09:38:58.271Z,11.70
2018-11-02T09:39:58.254Z,12.10
2018-11-02T09:40:58.259Z,11.00
2018-11-02T09:41:58.261Z,11.90
2018-11-02T09:42:58.267Z,11.50
2018-11-02T09:43:58.281Z,11.80
2018-11-02T09:44:58.277Z,11.80
2018-11-02T09:45:58.270Z,12.30
2018-11-02T09:46:58.278Z,10.60
2018-11-02T09:47:58.293Z,11.90
2018-11-02T09:48:58.314Z,13.60
2018-11-02T09:49:58.261Z,12.50
2018-11-02T09:50:58.263Z,12.30
2018-11-02T09:51:58.311Z,12.40
2018-11-02T09:52:58.269Z,14.30
2018-11-02T09:53:58.280Z,12.50
2018-11-02T09:54:58.265Z,17.10
2018-11-02T09:55:58.262Z,17.10
2018-11-02T09:56:58.260Z,13.80
2018-11-02T09:57:58.328Z,13.00
2018-11-02T09:58:58.297Z,10.30
2018-11-02T09:59:58.280Z,13.40
2018-11-02T10:00:58.303Z,12.00
2018-11-02T10:01:58.297Z,11.30
2018-11-02T10:02:58.296Z,12.90
2018-11-02T10:03:58.278Z,12.10
2018-11-02T10:04:58.311Z,13.50
2018-11-02T10:05:58.330Z,12.00
2018-11-02T10:06:58.309Z,12.00
2018-11-02T10:07:58.320Z,12.90
2018-11-02T10:08:58.347Z,12.50
2018-11-02T10:09:58.315Z,11.90
2018-11-02T10:10:58.285Z,11.20
2018-11-02T10:11:58.295Z,11.00
2018-11-02T10:12:58.294Z,10.70
2018-11-02T10:13:58.292Z,12.40
2018-11-02T10:14:58.300Z,9.20
2018-11-02T10:15:58.297Z,8.80
2018-11-02T10:16:58.299Z,11.30
2018-11-02T10:17:58.306Z,9.50
2018-11-02T10:18:58.335Z,11.30
2018-11-02T10:19:58.328Z,9.60
2018-11-02T10:20:58.321Z,11.80
2018-11-02T10:21:58.313Z,10.70
2018-11-02T10:22:58.314Z,10.60
2018-11-02T10:23:58.434Z,10.70
2018-11-02T10:24:58.317Z,10.70
2018-11-02T10:25:58.328Z,11.00
2018-11-02T10:26:58.341Z,10.60
2018-11-02T10:27:58.339Z,11.80
2018-11-02T10:28:58.351Z,11.10
2018-11-02T10:29:58.333Z,9.90
2018-11-02T10:30:58.311Z,10.40
2018-11-02T10:31:58.322Z,10.60
2018-11-02T10:32:58.319Z,9.80
2018-11-02T10:33:58.324Z,10.10
2018-11-02T10:34:58.372Z,10.60
2018-11-02T10:35:58.424Z,10.30
2018-11-02T10:36:58.341Z,10.80
2018-11-02T10:37:58.317Z,13.20
2018-11-02T10:38:58.334Z,10.20
2018-11-02T10:39:58.339Z,9.40
2018-11-02T10:40:58.328Z,9.80
2018-11-02T10:41:58.326Z,9.50
2018-11-02T10:42:58.342Z,9.60
2018-11-02T10:43:58.337Z,8.60
2018-11-02T10:44:58.390Z,8.70
2018-11-02T10:45:58.368Z,8.60
2018-11-02T10:46:58.350Z,8.90
2018-11-02T10:47:58.325Z,8.80
2018-11-02T10:48:58.329Z,8.00
2018-11-02T10:49:58.336Z,9.00
2018-11-02T10:50:58.350Z,7.50
2018-11-02T10:51:58.342Z,8.60
2018-11-02T10:52:58.339Z,8.10
2018-11-02T10:53:58.367Z,8.90
2018-11-02T10:54:58.347Z,8.30
2018-11-02T10:55:58.349Z,6.50
2018-11-02T10:56:58.348Z,10.20
2018-11-02T10:57:58.334Z,12.10
2018-11-02T10:58:58.364Z,11.40
2018-11-02T10:59:58.347Z,8.60
2018-11-02T11:00:58.441Z,9.20
2018-11-02T11:01:58.356Z,8.70
2018-11-02T11:02:58.366Z,7.40
2018-11-02T11:03:58.349Z,7.50
2018-11-02T11:04:58.352Z,7.10
2018-11-02T11:05:59.184Z,8.90
2018-11-02T11:06:58.351Z,5.40
2018-11-02T11:07:58.374Z,6.20
2018-11-02T11:08:58.375Z,6.80
2018-11-02T11:09:58.357Z,6.60
2018-11-02T11:10:58.345Z,7.90
2018-11-02T11:11:58.519Z,6.10
2018-11-02T11:12:58.634Z,7.00
2018-11-02T11:13:58.350Z,6.70
2018-11-02T11:14:58.392Z,5.90
2018-11-02T11:15:58.368Z,6.80
2018-11-02T11:16:58.380Z,7.30
2018-11-02T11:17:58.397Z,7.30
2018-11-02T11:18:58.399Z,6.70
2018-11-02T11:19:58.392Z,6.60
2018-11-02T11:20:58.412Z,8.40
2018-11-02T11:21:58.396Z,7.60
2018-11-02T11:22:58.404Z,7.60
2018-11-02T11:23:58.363Z,9.30
2018-11-02T11:24:58.379Z,7.80
2018-11-02T11:25:58.372Z,7.40
2018-11-02T11:26:58.395Z,7.80
2018-11-02T11:27:58.373Z,7.70
2018-11-02T11:28:58.433Z,7.40
2018-11-02T11:29:58.379Z,8.00
2018-11-02T11:30:58.373Z,9.30
2018-11-02T11:31:58.397Z,8.20
2018-11-02T11:32:58.449Z,9.30
2018-11-02T11:33:58.410Z,9.10
2018-11-02T11:34:58.381Z,11.00
2018-11-02T11:35:58.376Z,10.50
2018-11-02T11:36:58.384Z,9.20
2018-11-02T11:37:58.644Z,10.60
2018-11-02T11:38:58.387Z,12.50
2018-11-02T11:39:58.401Z,8.90
2018-11-02T11:40:58.377Z,10.50
2018-11-02T11:41:58.410Z,11.70
2018-11-02T11:42:58.388Z,10.80
2018-11-02T11:43:58.400Z,10.10
2018-11-02T11:44:58.388Z,10.80
2018-11-02T11:45:58.404Z,10.70
2018-11-02T11:46:58.382Z,9.50
2018-11-02T11:47:58.401Z,9.30
2018-11-02T11:48:58.552Z,10.50
2018-11-02T11:49:58.385Z,10.60
2018-11-02T11:50:58.401Z,10.00
2018-11-02T11:51:58.395Z,9.80
2018-11-02T11:52:58.410Z,11.40
2018-11-02T11:53:58.430Z,13.00
2018-11-02T11:54:58.413Z,10.20
2018-11-02T11:55:58.401Z,12.30
2018-11-02T11:56:58.413Z,12.20
2018-11-02T11:57:58.407Z,9.90
2018-11-02T11:58:58.397Z,9.70
2018-11-02T11:59:58.425Z,10.20
2018-11-02T12:00:58.428Z,8.70
2018-11-02T12:01:58.437Z,12.40
2018-11-02T12:02:58.399Z,10.50
2018-11-02T12:04:00.279Z,10.20
2018-11-02T12:04:58.534Z,10.10
2018-11-02T12:05:58.416Z,9.60
2018-11-02T12:06:58.477Z,10.20
2018-11-02T12:07:58.423Z,11.10
2018-11-02T12:08:58.410Z,12.80
2018-11-02T12:09:58.496Z,13.00
2018-11-02T12:10:58.440Z,12.30
2018-11-02T12:11:58.424Z,10.90
2018-11-02T12:12:58.423Z,12.20
2018-11-02T12:13:58.433Z,12.70
2018-11-02T12:14:58.421Z,12.20
2018-11-02T12:15:58.472Z,11.30
2018-11-02T12:16:58.454Z,12.00
2018-11-02T12:17:58.446Z,12.20
2018-11-02T12:18:58.425Z,14.60
2018-11-02T12:19:58.427Z,11.10
2018-11-02T12:20:58.453Z,10.10
2018-11-02T12:21:58.479Z,11.50
2018-11-02T12:22:58.447Z,10.10
2018-11-02T12:23:58.449Z,10.40
2018-11-02T12:24:58.424Z,10.10
2018-11-02T12:25:58.438Z,9.00
2018-11-02T12:26:58.431Z,9.30
2018-11-02T12:27:58.443Z,8.30
2018-11-02T12:28:58.595Z,7.50
2018-11-02T12:29:58.446Z,7.80
2018-11-02T12:30:58.460Z,7.10
2018-11-02T12:31:58.454Z,8.60
2018-11-02T12:32:58.444Z,8.40
2018-11-02T12:33:58.450Z,7.40
2018-11-02T12:34:58.464Z,11.20
2018-11-02T12:35:58.468Z,6.80
2018-11-02T12:36:58.473Z,8.10
2018-11-02T12:37:58.437Z,8.00
2018-11-02T12:38:58.447Z,7.00
2018-11-02T12:40:00.290Z,12.40
2018-11-02T12:40:58.468Z,7.20
2018-11-02T12:41:58.457Z,6.40
2018-11-02T12:42:58.454Z,7.90
2018-11-02T12:43:58.501Z,6.00
2018-11-02T12:44:58.443Z,7.10
2018-11-02T12:45:58.456Z,6.50
2018-11-02T12:46:58.461Z,7.90
2018-11-02T12:47:58.491Z,7.60
2018-11-02T12:48:58.771Z,7.80
2018-11-02T12:49:58.510Z,6.00
2018-11-02T12:50:58.466Z,6.30
2018-11-02T12:51:58.469Z,5.60
2018-11-02T12:52:58.477Z,5.20
2018-11-02T12:53:58.499Z,7.20
2018-11-02T12:54:58.493Z,6.00
2018-11-02T12:55:58.499Z,6.60
2018-11-02T12:56:58.456Z,6.20
2018-11-02T12:57:58.473Z,7.00
2018-11-02T12:58:58.481Z,4.70